Time,TemperatureF,DewpointF,PressureIn,WindDirection,WindDirectionDegrees,WindSpeedMPH,WindSpeedGustMPH,Humidity,HourlyPrecipIn,Conditions,Clouds,dailyrainin,SoftwareType,DateUTC
2013-01-12 00:00:00,25.0,21.1,30.46,NNW,336,2.0,22.0,85,0.00,,,0.00,Wunderground v.1.15,2013-01-12 04:00:00,
2013-01-12 00:10:00,25.1,21.5,30.45,NNW,337,2.0,22.0,86,0.00,,,0.00,Wunderground v.1.15,2013-01-12 04:10:00,
2013-01-12 00:20:00,25.2,21.6,30.46,NW,314,2.0,22.0,86,0.00,,,0.00,Wunderground v.1.15,2013-01-12 04:20:00,
2013-01-12 00:30:00,25.3,21.7,30.46,NW,309,3.0,3.0,86,0.00,,,0.00,Wunderground v.1.15,2013-01-12 04:30:00,
2013-01-12 00:40:00,25.4,21.8,30.45,NE,49,3.0,22.0,86,0.00,,,0.00,Wunderground v.1.15,2013-01-12 04:40:00,
2013-01-12 00:50:00,25.5,21.9,30.45,NW,312,3.0,3.0,86,0.00,,,0.00,Wunderground v.1.15,2013-01-12 04:50:00,
2013-01-12 01:00:00,25.5,21.9,30.45,NNW,332,3.0,3.0,86,0.00,,,0.00,Wunderground v.1.15,2013-01-12 05:00:00,
2013-01-12 01:10:00,25.5,21.9,30.46,NW,311,2.0,2.0,86,0.00,,,0.00,Wunderground v.1.15,2013-01-12 05:10:00,
2013-01-12 01:20:00,25.6,22.0,30.46,NW,310,3.0,3.0,86,0.00,,,0.00,Wunderground v.1.15,2013-01-12 05:20:00,
2013-01-12 01:30:00,25.6,22.0,30.46,WNW,299,2.0,22.0,86,0.00,,,0.00,Wunderground v.1.15,2013-01-12 05:30:00,
2013-01-12 01:40:00,25.6,22.0,30.46,NW,316,2.0,2.0,86,0.00,,,0.00,Wunderground v.1.15,2013-01-12 05:40:00,
2013-01-12 01:50:00,25.7,22.1,30.47,NW,314,2.0,2.0,86,0.00,,,0.00,Wunderground v.1.15,2013-01-12 05:50:00,
2013-01-12 02:00:00,25.8,22.2,30.46,NW,304,2.0,22.0,86,0.00,,,0.00,Wunderground v.1.15,2013-01-12 06:00:00,
2013-01-12 02:10:00,25.8,22.2,30.46,NNW,329,2.0,22.0,86,0.00,,,0.00,Wunderground v.1.15,2013-01-12 06:10:00,
2013-01-12 02:20:00,25.9,22.3,30.46,NW,310,3.0,3.0,86,0.00,,,0.00,Wunderground v.1.15,2013-01-12 06:20:00,
2013-01-12 02:30:00,25.9,22.3,30.45,North,354,3.0,3.0,86,0.00,,,0.00,Wunderground v.1.15,2013-01-12 06:30:00,
2013-01-12 02:40:00,26.0,22.1,30.45,North,359,3.0,22.0,85,0.00,,,0.00,Wunderground v.1.15,2013-01-12 06:40:00,
2013-01-12 02:50:00,26.0,22.1,30.45,North,10,3.0,22.0,85,0.00,,,0.00,Wunderground v.1.15,2013-01-12 06:50:00,
2013-01-12 03:00:00,26.1,22.5,30.45,WNW,293,3.0,22.0,86,0.00,,,0.00,Wunderground v.1.15,2013-01-12 07:00:00,
2013-01-12 03:10:00,26.2,22.6,30.45,WNW,285,3.0,22.0,86,0.00,,,0.00,Wunderground v.1.15,2013-01-12 07:10:00,
2013-01-12 03:20:00,26.2,22.6,30.45,NW,321,3.0,22.0,86,0.00,,,0.00,Wunderground v.1.15,2013-01-12 07:20:00,
2013-01-12 03:30:00,26.3,22.7,30.45,NNW,330,3.0,3.0,86,0.00,,,0.00,Wunderground v.1.15,2013-01-12 07:30:00,
2013-01-12 03:40:00,26.3,22.4,30.45,NW,321,3.0,3.0,85,0.00,,,0.00,Wunderground v.1.15,2013-01-12 07:40:00,
2013-01-12 03:50:00,26.4,22.8,30.44,WNW,287,3.0,22.0,86,0.00,,,0.00,Wunderground v.1.15,2013-01-12 07:50:00,
2013-01-12 04:00:00,26.4,22.5,30.44,NW,306,4.0,22.0,85,0.00,,,0.00,Wunderground v.1.15,2013-01-12 08:00:00,
2013-01-12 04:10:00,26.5,22.6,30.44,NNW,332,4.0,4.0,85,0.00,,,0.00,Wunderground v.1.15,2013-01-12 08:10:00,
2013-01-12 04:20:00,26.4,22.5,30.44,NNW,327,3.0,22.0,85,0.00,,,0.00,Wunderground v.1.15,2013-01-12 08:20:00,
2013-01-12 04:30:00,26.3,22.7,30.43,NNW,345,4.0,22.0,86,0.00,,,0.00,Wunderground v.1.15,2013-01-12 08:30:00,
2013-01-12 04:40:00,26.3,22.7,30.43,North,356,3.0,22.0,86,0.00,,,0.00,Wunderground v.1.15,2013-01-12 08:40:00,
2013-01-12 04:50:00,26.3,22.7,30.42,NNW,328,3.0,22.0,86,0.00,,,0.00,Wunderground v.1.15,2013-01-12 08:50:00,
2013-01-12 05:00:00,26.3,22.7,30.42,North,1,3.0,3.0,86,0.00,,,0.00,Wunderground v.1.15,2013-01-12 09:00:00,
2013-01-12 05:10:00,26.3,22.7,30.42,North,358,3.0,22.0,86,0.00,,,0.00,Wunderground v.1.15,2013-01-12 09:10:00,
2013-01-12 05:20:00,26.3,22.7,30.42,NNW,336,2.0,22.0,86,0.00,,,0.00,Wunderground v.1.15,2013-01-12 09:20:00,
2013-01-12 05:30:00,26.4,22.8,30.42,North,349,2.0,22.0,86,0.00,,,0.00,Wunderground v.1.15,2013-01-12 09:30:00,
2013-01-12 05:40:00,26.5,22.9,30.43,NW,325,2.0,22.0,86,0.00,,,0.00,Wunderground v.1.15,2013-01-12 09:40:00,
2013-01-12 05:50:00,26.5,22.9,30.43,NNW,337,3.0,22.0,86,0.00,,,0.00,Wunderground v.1.15,2013-01-12 09:50:00,
2013-01-12 06:00:00,26.6,23.0,30.43,NW,321,3.0,3.0,86,0.00,,,0.00,Wunderground v.1.15,2013-01-12 10:00:00,
2013-01-12 06:10:00,26.6,23.3,30.43,NNW,337,2.0,2.0,87,0.00,,,0.00,Wunderground v.1.15,2013-01-12 10:10:00,
2013-01-12 06:20:00,26.7,23.4,30.43,NW,313,3.0,22.0,87,0.00,,,0.00,Wunderground v.1.15,2013-01-12 10:20:00,
2013-01-12 06:30:00,26.8,23.2,30.43,North,11,3.0,22.0,86,0.00,,,0.00,Wunderground v.1.15,2013-01-12 10:30:00,
2013-01-12 06:40:00,27.0,23.4,30.43,North,353,3.0,22.0,86,0.00,,,0.00,Wunderground v.1.15,2013-01-12 10:40:00,
2013-01-12 06:50:00,27.0,23.4,30.44,North,9,2.0,2.0,86,0.00,,,0.00,Wunderground v.1.15,2013-01-12 10:50:00,
2013-01-12 07:00:00,27.1,23.7,30.43,North,349,2.0,22.0,87,0.00,,,0.00,Wunderground v.1.15,2013-01-12 11:00:00,
2013-01-12 07:10:00,27.1,23.7,30.43,North,358,2.0,22.0,87,0.00,,,0.00,Wunderground v.1.15,2013-01-12 11:10:00,
2013-01-12 07:20:00,27.2,23.6,30.43,NW,323,3.0,3.0,86,0.00,,,0.00,Wunderground v.1.15,2013-01-12 11:20:00,
2013-01-12 07:30:00,27.3,23.7,30.43,NNW,338,2.0,2.0,86,0.00,,,0.00,Wunderground v.1.15,2013-01-12 11:30:00,
2013-01-12 07:40:00,27.3,23.7,30.42,NNW,332,2.0,22.0,86,0.00,,,0.00,Wunderground v.1.15,2013-01-12 11:40:00,
2013-01-12 07:50:00,27.3,23.7,30.42,NNE,33,2.0,22.0,86,0.00,,,0.00,Wunderground v.1.15,2013-01-12 11:50:00,
2013-01-12 08:00:00,27.3,23.9,30.42,NNW,341,1.0,22.0,87,0.00,,,0.00,Wunderground v.1.15,2013-01-12 12:00:00,
2013-01-12 08:10:00,27.1,24.0,30.42,NNW,335,1.0,22.0,88,0.00,,,0.00,Wunderground v.1.15,2013-01-12 12:10:00,
2013-01-12 08:20:00,27.2,24.1,30.42,NW,315,1.0,1.0,88,0.00,,,0.00,Wunderground v.1.15,2013-01-12 12:20:00,
2013-01-12 08:30:00,27.3,23.9,30.42,NNW,333,1.0,22.0,87,0.00,,,0.00,Wunderground v.1.15,2013-01-12 12:30:00,
2013-01-12 08:40:00,27.5,24.1,30.42,NW,321,2.0,2.0,87,0.00,,,0.00,Wunderground v.1.15,2013-01-12 12:40:00,
2013-01-12 08:50:00,27.8,24.4,30.42,NE,34,1.0,22.0,87,0.00,,,0.00,Wunderground v.1.15,2013-01-12 12:50:00,
2013-01-12 09:00:00,27.9,24.5,30.42,North,360,1.0,22.0,87,0.00,,,0.00,Wunderground v.1.15,2013-01-12 13:00:00,
2013-01-12 09:10:00,27.8,24.2,30.42,WNW,288,1.0,22.0,86,0.00,,,0.00,Wunderground v.1.15,2013-01-12 13:10:00,
2013-01-12 09:20:00,27.8,24.2,30.43,West,267,2.0,22.0,86,0.00,,,0.00,Wunderground v.1.15,2013-01-12 13:20:00,
2013-01-12 09:30:00,28.0,24.4,30.42,North,349,2.0,22.0,86,0.00,,,0.00,Wunderground v.1.15,2013-01-12 13:30:00,
2013-01-12 09:40:00,28.3,24.4,30.43,NW,321,2.0,22.0,85,0.00,,,0.00,Wunderground v.1.15,2013-01-12 13:40:00,
2013-01-12 09:50:00,28.6,24.7,30.43,NW,309,2.0,22.0,85,0.00,,,0.00,Wunderground v.1.15,2013-01-12 13:50:00,
2013-01-12 10:00:00,28.9,24.7,30.41,NNE,27,2.0,2.0,84,0.00,,,0.00,Wunderground v.1.15,2013-01-12 14:00:00,
2013-01-12 10:10:00,29.2,25.3,30.41,North,357,1.0,1.0,85,0.00,,,0.00,Wunderground v.1.15,2013-01-12 14:10:00,
2013-01-12 10:20:00,29.4,25.2,30.42,NW,323,1.0,1.0,84,0.00,,,0.00,Wunderground v.1.15,2013-01-12 14:20:00,
2013-01-12 10:30:00,29.4,25.2,30.42,NW,310,1.0,22.0,84,0.00,,,0.00,Wunderground v.1.15,2013-01-12 14:30:00,
2013-01-12 10:40:00,29.2,25.3,30.42,North,349,1.0,22.0,85,0.00,,,0.00,Wunderground v.1.15,2013-01-12 14:40:00,
2013-01-12 10:50:00,29.0,25.1,30.42,NNW,333,2.0,2.0,85,0.00,,,0.00,Wunderground v.1.15,2013-01-12 14:50:00,
2013-01-12 11:00:00,28.9,25.0,30.41,NNW,332,1.0,22.0,85,0.00,,,0.00,Wunderground v.1.15,2013-01-12 15:00:00,
2013-01-12 11:10:00,29.1,25.4,30.40,NW,318,1.0,1.0,86,0.00,,,0.00,Wunderground v.1.15,2013-01-12 15:10:00,
2013-01-12 11:20:00,29.4,25.4,30.40,NNW,347,1.0,1.0,85,0.00,,,0.00,Wunderground v.1.15,2013-01-12 15:20:00,
2013-01-12 11:30:00,29.9,25.9,30.40,NNW,332,1.0,22.0,85,0.00,,,0.00,Wunderground v.1.15,2013-01-12 15:30:00,
2013-01-12 11:40:00,29.4,24.9,30.41,NW,307,2.0,22.0,83,0.00,,,0.00,Wunderground v.1.15,2013-01-12 15:40:00,
2013-01-12 11:50:00,29.4,25.2,30.40,North,8,2.0,22.0,84,0.00,,,0.00,Wunderground v.1.15,2013-01-12 15:50:00,
2013-01-12 12:00:00,29.7,25.5,30.39,NW,314,2.0,22.0,84,0.00,,,0.00,Wunderground v.1.15,2013-01-12 16:00:00,
2013-01-12 12:10:00,29.9,25.7,30.39,NNW,348,1.0,22.0,84,0.00,,,0.00,Wunderground v.1.15,2013-01-12 16:10:00,
2013-01-12 12:20:00,30.1,25.6,30.39,North,1,1.0,22.0,83,0.00,,,0.00,Wunderground v.1.15,2013-01-12 16:20:00,
2013-01-12 12:30:00,30.0,25.8,30.38,North,349,1.0,1.0,84,0.00,,,0.00,Wunderground v.1.15,2013-01-12 16:30:00,
2013-01-12 12:40:00,30.1,25.6,30.38,North,4,1.0,22.0,83,0.00,,,0.00,Wunderground v.1.15,2013-01-12 16:40:00,
2013-01-12 12:50:00,30.2,25.7,30.38,North,354,1.0,22.0,83,0.00,,,0.00,Wunderground v.1.15,2013-01-12 16:50:00,
2013-01-12 13:00:00,30.1,25.6,30.38,WSW,250,1.0,22.0,83,0.00,,,0.00,Wunderground v.1.15,2013-01-12 17:00:00,
2013-01-12 13:10:00,30.0,25.2,30.38,NW,319,2.0,2.0,82,0.00,,,0.00,Wunderground v.1.15,2013-01-12 17:10:00,
2013-01-12 13:20:00,30.5,26.0,30.38,North,349,1.0,22.0,83,0.00,,,0.00,Wunderground v.1.15,2013-01-12 17:20:00,
2013-01-12 13:30:00,30.4,25.9,30.37,NW,322,1.0,22.0,83,0.00,,,0.00,Wunderground v.1.15,2013-01-12 17:30:00,
2013-01-12 13:40:00,30.0,25.5,30.37,ENE,63,2.0,2.0,83,0.00,,,0.00,Wunderground v.1.15,2013-01-12 17:40:00,
2013-01-12 13:50:00,30.1,25.6,30.37,WNW,298,1.0,22.0,83,0.00,,,0.00,Wunderground v.1.15,2013-01-12 17:50:00,
2013-01-12 14:00:00,30.3,25.8,30.37,NW,308,2.0,2.0,83,0.00,,,0.00,Wunderground v.1.15,2013-01-12 18:00:00,
2013-01-12 14:10:00,30.2,25.4,30.37,NW,304,1.0,1.0,82,0.00,,,0.00,Wunderground v.1.15,2013-01-12 18:10:00,
2013-01-12 14:20:00,30.4,25.9,30.36,NW,323,1.0,22.0,83,0.00,,,0.00,Wunderground v.1.15,2013-01-12 18:20:00,
2013-01-12 14:30:00,30.1,25.6,30.36,NW,322,2.0,22.0,83,0.00,,,0.00,Wunderground v.1.15,2013-01-12 18:30:00,
2013-01-12 14:40:00,29.8,25.3,30.35,NW,320,1.0,22.0,83,0.00,,,0.00,Wunderground v.1.15,2013-01-12 18:40:00,
2013-01-12 14:50:00,29.7,25.5,30.35,NNW,330,1.0,1.0,84,0.00,,,0.00,Wunderground v.1.15,2013-01-12 18:50:00,
2013-01-12 15:00:00,29.8,25.3,30.36,NNW,339,1.0,22.0,83,0.00,,,0.00,Wunderground v.1.15,2013-01-12 19:00:00,
2013-01-12 15:10:00,29.7,25.2,30.36,WNW,303,1.0,22.0,83,0.00,,,0.00,Wunderground v.1.15,2013-01-12 19:10:00,
2013-01-12 15:20:00,29.5,25.0,30.36,NW,319,1.0,22.0,83,0.00,,,0.00,Wunderground v.1.15,2013-01-12 19:20:00,
2013-01-12 15:30:00,29.4,25.2,30.35,NW,307,1.0,22.0,84,0.00,,,0.00,Wunderground v.1.15,2013-01-12 19:30:00,
2013-01-12 15:40:00,29.1,25.2,30.35,NW,314,1.0,22.0,85,0.00,,,0.00,Wunderground v.1.15,2013-01-12 19:40:00,
2013-01-12 15:50:00,28.9,25.2,30.36,NW,321,1.0,22.0,86,0.00,,,0.00,Wunderground v.1.15,2013-01-12 19:50:00,
2013-01-12 16:00:00,28.8,25.1,30.35,NNW,347,1.0,22.0,86,0.00,,,0.00,Wunderground v.1.15,2013-01-12 20:00:00,
2013-01-12 16:10:00,28.4,24.7,30.36,NW,321,1.0,1.0,86,0.00,,,0.00,Wunderground v.1.15,2013-01-12 20:10:00,
2013-01-12 16:20:00,28.3,24.6,30.36,NNW,329,0.0,22.0,86,0.00,,,0.00,Wunderground v.1.15,2013-01-12 20:20:00,
2013-01-12 16:30:00,28.1,24.5,30.35,WNW,285,0.0,22.0,86,0.00,,,0.00,Wunderground v.1.15,2013-01-12 20:30:00,
2013-01-12 16:40:00,27.9,24.5,30.34,WNW,285,0.0,22.0,87,0.00,,,0.00,Wunderground v.1.15,2013-01-12 20:40:00,
2013-01-12 16:50:00,27.5,24.1,30.34,NNW,338,0.0,22.0,87,0.00,,,0.00,Wunderground v.1.15,2013-01-12 20:50:00,
2013-01-12 17:00:00,26.9,23.8,30.33,East,96,0.0,22.0,88,0.00,,,0.00,Wunderground v.1.15,2013-01-12 21:00:00,
2013-01-12 17:10:00,26.5,23.7,30.34,East,96,0.0,22.0,89,0.00,,,0.00,Wunderground v.1.15,2013-01-12 21:10:00,
2013-01-12 17:20:00,26.5,24.0,30.34,East,96,0.0,22.0,90,0.00,,,0.00,Wunderground v.1.15,2013-01-12 21:20:00,
2013-01-12 17:30:00,26.4,23.9,30.35,East,96,0.0,22.0,90,0.00,,,0.00,Wunderground v.1.15,2013-01-12 21:30:00,
2013-01-12 17:40:00,26.3,23.8,30.34,East,96,0.0,22.0,90,0.00,,,0.00,Wunderground v.1.15,2013-01-12 21:40:00,
2013-01-12 17:50:00,26.1,23.6,30.34,East,96,0.0,22.0,90,0.00,,,0.00,Wunderground v.1.15,2013-01-12 21:50:00,
2013-01-12 18:00:00,26.1,23.6,30.33,East,96,0.0,22.0,90,0.00,,,0.00,Wunderground v.1.15,2013-01-12 22:00:00,
2013-01-12 18:10:00,26.0,23.5,30.33,East,96,0.0,22.0,90,0.00,,,0.00,Wunderground v.1.15,2013-01-12 22:10:00,
2013-01-12 18:20:00,25.8,23.3,30.33,East,96,0.0,22.0,90,0.00,,,0.00,Wunderground v.1.15,2013-01-12 22:20:00,
2013-01-12 18:30:00,25.5,23.2,30.32,East,96,0.0,22.0,91,0.00,,,0.00,Wunderground v.1.15,2013-01-12 22:30:00,
2013-01-12 18:40:00,25.4,23.1,30.32,East,96,0.0,22.0,91,0.00,,,0.00,Wunderground v.1.15,2013-01-12 22:40:00,
2013-01-12 18:50:00,25.2,22.9,30.32,SSE,155,0.0,22.0,91,0.00,,,0.00,Wunderground v.1.15,2013-01-12 22:50:00,
2013-01-12 19:00:00,25.1,22.8,30.32,SSE,155,0.0,22.0,91,0.00,,,0.00,Wunderground v.1.15,2013-01-12 23:00:00,
2013-01-12 19:10:00,24.4,21.9,30.32,SSE,155,0.0,22.0,90,0.00,,,0.00,Wunderground v.1.15,2013-01-12 23:10:00,
2013-01-12 19:20:00,24.2,22.2,30.32,SSE,155,0.0,22.0,92,0.00,,,0.00,Wunderground v.1.15,2013-01-12 23:20:00,
2013-01-12 19:30:00,23.4,21.2,30.32,SSE,155,0.0,22.0,91,0.00,,,0.00,Wunderground v.1.15,2013-01-12 23:30:00,
2013-01-12 19:40:00,22.8,20.8,30.32,SSE,155,0.0,22.0,92,0.00,,,0.00,Wunderground v.1.15,2013-01-12 23:40:00,
2013-01-12 19:50:00,23.0,21.3,30.32,SSE,155,0.0,22.0,93,0.00,,,0.00,Wunderground v.1.15,2013-01-12 23:50:00,
2013-01-12 20:00:00,22.7,21.0,30.33,SSE,155,0.0,22.0,93,0.00,,,0.00,Wunderground v.1.15,2013-01-13 00:00:00,
2013-01-12 20:10:00,22.4,20.7,30.33,SSE,155,0.0,22.0,93,0.00,,,0.00,Wunderground v.1.15,2013-01-13 00:10:00,
2013-01-12 20:20:00,21.9,20.2,30.33,SSE,155,0.0,22.0,93,0.00,,,0.00,Wunderground v.1.15,2013-01-13 00:20:00,
2013-01-12 20:30:00,21.7,20.0,30.33,SSE,148,0.0,22.0,93,0.00,,,0.00,Wunderground v.1.15,2013-01-13 00:30:00,
2013-01-12 20:40:00,22.3,20.8,30.32,South,187,0.0,22.0,94,0.00,,,0.00,Wunderground v.1.15,2013-01-13 00:40:00,
2013-01-12 20:50:00,22.0,20.3,30.33,South,186,0.0,22.0,93,0.00,,,0.00,Wunderground v.1.15,2013-01-13 00:50:00,
2013-01-12 21:00:00,21.7,20.0,30.33,SSE,150,0.0,22.0,93,0.00,,,0.00,Wunderground v.1.15,2013-01-13 01:00:00,
2013-01-12 21:10:00,21.4,19.7,30.32,SSE,150,0.0,22.0,93,0.00,,,0.00,Wunderground v.1.15,2013-01-13 01:10:00,
2013-01-12 21:20:00,21.9,20.4,30.32,SSE,150,0.0,22.0,94,0.00,,,0.00,Wunderground v.1.15,2013-01-13 01:20:00,
2013-01-12 21:30:00,21.8,20.3,30.31,SSE,150,0.0,22.0,94,0.00,,,0.00,Wunderground v.1.15,2013-01-13 01:30:00,
2013-01-12 21:40:00,21.3,19.8,30.31,SSE,150,0.0,22.0,94,0.00,,,0.00,Wunderground v.1.15,2013-01-13 01:40:00,
2013-01-12 21:50:00,21.5,20.0,30.31,SSE,151,0.0,22.0,94,0.00,,,0.00,Wunderground v.1.15,2013-01-13 01:50:00,
2013-01-12 22:00:00,21.9,20.7,30.31,SW,224,0.0,22.0,95,0.00,,,0.00,Wunderground v.1.15,2013-01-13 02:00:00,
2013-01-12 22:10:00,21.4,19.9,30.30,SW,224,0.0,22.0,94,0.00,,,0.00,Wunderground v.1.15,2013-01-13 02:10:00,
2013-01-12 22:20:00,21.1,19.6,30.30,SW,222,0.0,22.0,94,0.00,,,0.00,Wunderground v.1.15,2013-01-13 02:20:00,
2013-01-12 22:30:00,21.1,19.6,30.29,SW,216,0.0,22.0,94,0.00,,,0.00,Wunderground v.1.15,2013-01-13 02:30:00,
2013-01-12 22:40:00,21.1,19.6,30.29,SW,216,0.0,22.0,94,0.00,,,0.00,Wunderground v.1.15,2013-01-13 02:40:00,
2013-01-12 22:50:00,20.3,18.6,30.30,SW,217,0.0,22.0,93,0.00,,,0.00,Wunderground v.1.15,2013-01-13 02:50:00,
2013-01-12 23:00:00,19.9,18.5,30.29,SW,217,0.0,22.0,94,0.00,,,0.00,Wunderground v.1.15,2013-01-13 03:00:00,
2013-01-12 23:10:00,19.4,18.0,30.28,SW,216,0.0,22.0,94,0.00,,,0.00,Wunderground v.1.15,2013-01-13 03:10:00,
2013-01-12 23:20:00,19.7,18.3,30.28,SSW,205,0.0,22.0,94,0.00,,,0.00,Wunderground v.1.15,2013-01-13 03:20:00,
2013-01-12 23:30:00,19.6,18.4,30.28,SSW,205,0.0,22.0,95,0.00,,,0.00,Wunderground v.1.15,2013-01-13 03:30:00,
2013-01-12 23:40:00,19.8,18.4,30.29,SSW,205,0.0,22.0,94,0.00,,,0.00,Wunderground v.1.15,2013-01-13 03:40:00,
2013-01-12 23:50:00,19.9,18.9,30.28,SW,224,0.0,22.0,96,0.00,,,0.00,Wunderground v.1.15,2013-01-13 03:50:00,